Time;durP1;ratioP1;P1;durP2;ratioP2;P2;SDS_P1;SDS_P2;PMS_P1;PMS_P2;Temp;Humidity;BMP_temperature;BMP_pressure;BME280_temperature;BME280_humidity;BME280_pressure;Samples;Min_cycle;Max_cycle;Signal;HPM_P1;HPM_P2
2024/01/26 00:00:13;;;;;;;5.40;2.88;;;;;;;;;;5073373;28;20023;-67
2024/01/26 00:02:38;;;;;;;6.55;3.72;;;;;;;;;;5073079;28;20036;-67
2024/01/26 00:05:04;;;;;;;3.15;2.85;;;;;;;;;;5073002;28;20471;-61
2024/01/26 00:07:29;;;;;;;4.97;2.85;;;;;;;;;;5073342;28;20064;-67
2024/01/26 00:09:55;;;;;;;4.38;2.28;;;;;;;;;;5075063;28;20355;-68
2024/01/26 00:12:20;;;;;;;2.67;2.15;;;;;;;;;;5076809;28;20041;-68
2024/01/26 00:14:46;;;;;;;3.45;2.05;;;;;;;;;;5077184;28;20073;-61
2024/01/26 00:17:11;;;;;;;2.75;1.77;;;;;;;;;;5076716;28;20029;-62
2024/01/26 00:19:37;;;;;;;3.72;2.03;;;;;;;;;;5076899;28;20543;-68
2024/01/26 00:22:03;;;;;;;2.45;2.22;;;;;;;;;;5076846;28;20037;-69
2024/01/26 00:24:28;;;;;;;1.88;1.77;;;;;;;;;;5076853;28;20422;-69
2024/01/26 00:26:54;;;;;;;3.78;1.95;;;;;;;;;;5076752;28;20036;-68
2024/01/26 00:29:19;;;;;;;2.45;1.98;;;;;;;;;;5076743;28;20029;-62
2024/01/26 00:31:44;;;;;;;4.15;1.92;;;;;;;;;;5076799;28;20368;-61
2024/01/26 00:34:10;;;;;;;3.83;2.13;;;;;;;;;;5075429;28;20032;-61
2024/01/26 00:36:44;;;;;;;2.47;1.73;;;;;;;;;;5075217;28;20031;-68
2024/01/26 00:39:09;;;;;;;1.85;1.60;;;;;;;;;;5076579;28;20025;-61
2024/01/26 00:41:36;;;;;;;2.38;1.80;;;;;;;;;;5076348;28;20450;-61
2024/01/26 00:44:02;;;;;;;4.03;1.92;;;;;;;;;;5076294;28;20445;-61
2024/01/26 00:46:27;;;;;;;1.27;1.17;;;;;;;;;;5076348;28;20043;-61
2024/01/26 00:48:54;;;;;;;2.15;1.92;;;;;;;;;;5076186;28;20025;-61
2024/01/26 00:51:20;;;;;;;2.00;1.77;;;;;;;;;;5076327;28;20333;-66
2024/01/26 00:53:45;;;;;;;1.60;1.50;;;;;;;;;;5075989;28;20081;-67
2024/01/26 00:56:10;;;;;;;2.63;1.70;;;;;;;;;;5076012;28;20070;-67
2024/01/26 00:58:36;;;;;;;1.38;1.27;;;;;;;;;;5075740;28;20464;-60
2024/01/26 01:01:02;;;;;;;1.63;1.50;;;;;;;;;;5075667;28;20064;-60
2024/01/26 01:03:28;;;;;;;1.77;1.63;;;;;;;;;;5074226;28;20517;-60
2024/01/26 01:05:53;;;;;;;1.80;1.40;;;;;;;;;;5075861;28;20020;-61
2024/01/26 01:08:20;;;;;;;1.65;1.55;;;;;;;;;;5075900;28;20373;-68
2024/01/26 01:10:45;;;;;;;1.77;1.67;;;;;;;;;;5075829;28;20056;-68
2024/01/26 01:13:11;;;;;;;1.73;1.63;;;;;;;;;;5074197;28;20065;-68
2024/01/26 01:15:39;;;;;;;1.15;1.10;;;;;;;;;;5074515;28;20578;-68
2024/01/26 01:18:05;;;;;;;1.77;1.60;;;;;;;;;;5075615;28;20024;-60
2024/01/26 01:20:30;;;;;;;2.08;1.65;;;;;;;;;;5075568;28;20102;-60
2024/01/26 01:22:58;;;;;;;1.83;1.60;;;;;;;;;;5074066;28;20033;-67
2024/01/26 01:25:25;;;;;;;1.58;1.40;;;;;;;;;;5075241;28;20036;-66
2024/01/26 01:27:50;;;;;;;1.70;1.55;;;;;;;;;;5075445;28;20155;-67
2024/01/26 01:30:16;;;;;;;2.38;1.95;;;;;;;;;;5075434;28;20059;-67
2024/01/26 01:32:41;;;;;;;3.08;1.85;;;;;;;;;;5075503;28;20040;-67
2024/01/26 01:35:06;;;;;;;2.53;2.05;;;;;;;;;;5073943;28;20032;-68
2024/01/26 01:37:32;;;;;;;2.03;1.80;;;;;;;;;;5074050;28;20032;-69
2024/01/26 01:39:57;;;;;;;2.53;2.08;;;;;;;;;;5075234;28;20025;-69
2024/01/26 01:42:23;;;;;;;2.33;2.08;;;;;;;;;;5074913;28;20468;-70
2024/01/26 01:44:48;;;;;;;1.77;1.67;;;;;;;;;;5075142;28;20024;-69
2024/01/26 01:47:14;;;;;;;2.55;1.50;;;;;;;;;;5075068;28;20103;-69
2024/01/26 01:49:41;;;;;;;2.60;1.70;;;;;;;;;;5075065;28;20035;-69
2024/01/26 01:52:29;;;;;;;2.15;1.55;;;;;;;;;;5074798;28;20062;-69
2024/01/26 01:54:56;;;;;;;2.53;1.90;;;;;;;;;;5074846;28;20066;-67
2024/01/26 01:57:23;;;;;;;1.50;1.40;;;;;;;;;;5075067;28;20024;-67
2024/01/26 01:59:48;;;;;;;3.38;1.52;;;;;;;;;;5074702;28;20074;-67
2024/01/26 02:02:14;;;;;;;1.95;1.50;;;;;;;;;;5074780;28;20020;-66
2024/01/26 02:04:40;;;;;;;1.88;1.50;;;;;;;;;;5075020;28;20060;-67
2024/01/26 02:07:05;;;;;;;1.50;1.40;;;;;;;;;;5074362;28;20052;-67
2024/01/26 02:09:31;;;;;;;1.45;1.35;;;;;;;;;;5074842;28;20035;-66
2024/01/26 02:11:57;;;;;;;1.70;1.50;;;;;;;;;;5074526;28;20028;-67
2024/01/26 02:14:23;;;;;;;1.50;1.33;;;;;;;;;;5074219;28;20045;-67
2024/01/26 02:16:55;;;;;;;2.05;1.73;;;;;;;;;;5074475;28;20134;-67
2024/01/26 02:19:21;;;;;;;2.17;1.55;;;;;;;;;;5074535;28;20414;-66
2024/01/26 02:21:46;;;;;;;1.50;1.40;;;;;;;;;;5074562;28;20103;-67
2024/01/26 02:24:13;;;;;;;1.80;1.35;;;;;;;;;;5074374;28;20071;-61
2024/01/26 02:26:38;;;;;;;3.13;2.00;;;;;;;;;;5074284;28;20391;-61
2024/01/26 02:29:04;;;;;;;2.25;1.55;;;;;;;;;;5074588;28;20028;-61
2024/01/26 02:31:29;;;;;;;1.52;1.40;;;;;;;;;;5074344;28;20165;-61
2024/01/26 02:33:54;;;;;;;2.00;1.30;;;;;;;;;;5072626;28;20031;-62
2024/01/26 02:36:20;;;;;;;1.83;1.63;;;;;;;;;;5074315;28;20032;-62
2024/01/26 02:38:45;;;;;;;1.48;1.38;;;;;;;;;;5074052;28;20043;-61
2024/01/26 02:41:11;;;;;;;3.47;1.58;;;;;;;;;;5074411;28;20064;-70
2024/01/26 02:43:36;;;;;;;1.63;1.45;;;;;;;;;;5074101;28;20082;-70
2024/01/26 02:46:07;;;;;;;2.03;1.50;;;;;;;;;;5074277;28;20025;-67
2024/01/26 02:48:33;;;;;;;1.90;1.75;;;;;;;;;;5074081;28;20077;-68
2024/01/26 02:50:58;;;;;;;2.30;2.10;;;;;;;;;;5072945;28;20103;-67
2024/01/26 02:53:23;;;;;;;2.33;1.95;;;;;;;;;;5073912;28;20017;-67
2024/01/26 02:55:49;;;;;;;1.98;1.85;;;;;;;;;;5074214;28;20039;-67
2024/01/26 02:58:14;;;;;;;2.92;2.28;;;;;;;;;;5074093;28;20037;-67
2024/01/26 03:00:40;;;;;;;2.72;2.13;;;;;;;;;;5073947;28;20024;-67
2024/01/26 03:03:06;;;;;;;2.20;1.90;;;;;;;;;;5072591;28;20028;-67
2024/01/26 03:05:31;;;;;;;2.35;2.10;;;;;;;;;;5073681;28;20036;-68
2024/01/26 03:07:57;;;;;;;3.35;2.15;;;;;;;;;;5073963;28;20028;-68
2024/01/26 03:10:22;;;;;;;3.05;2.08;;;;;;;;;;5073581;28;20035;-68
2024/01/26 03:12:48;;;;;;;2.28;1.90;;;;;;;;;;5073394;28;20045;-68
2024/01/26 03:15:13;;;;;;;1.85;1.75;;;;;;;;;;5073413;28;20039;-68
2024/01/26 03:17:39;;;;;;;2.10;2.00;;;;;;;;;;5073466;28;20036;-68
2024/01/26 03:20:05;;;;;;;2.45;2.25;;;;;;;;;;5072668;28;20032;-68
2024/01/26 03:22:30;;;;;;;9.40;6.20;;;;;;;;;;5073493;28;20037;-60
2024/01/26 03:24:56;;;;;;;5.38;3.40;;;;;;;;;;5072334;28;20116;-68
2024/01/26 03:27:21;;;;;;;3.72;2.38;;;;;;;;;;5073606;28;20495;-68
2024/01/26 03:29:46;;;;;;;2.85;2.55;;;;;;;;;;5073536;28;20039;-68
2024/01/26 03:32:12;;;;;;;2.95;2.38;;;;;;;;;;5073738;28;20028;-60
2024/01/26 03:34:37;;;;;;;3.05;2.55;;;;;;;;;;5073721;28;20071;-60
2024/01/26 03:37:03;;;;;;;2.13;2.03;;;;;;;;;;5073679;28;20036;-61
2024/01/26 03:39:29;;;;;;;4.75;4.15;;;;;;;;;;5073975;28;20040;-60
2024/01/26 03:41:55;;;;;;;10.10;5.82;;;;;;;;;;5073342;28;20043;-60
2024/01/26 03:44:20;;;;;;;9.68;5.20;;;;;;;;;;5073943;28;20028;-60
2024/01/26 03:46:46;;;;;;;8.93;4.05;;;;;;;;;;5077248;28;20025;-60
2024/01/26 03:49:11;;;;;;;3.28;2.45;;;;;;;;;;5077085;28;20379;-61
2024/01/26 03:51:38;;;;;;;2.35;2.15;;;;;;;;;;5077231;28;20020;-60
2024/01/26 03:54:03;;;;;;;2.30;1.83;;;;;;;;;;5077237;28;20489;-61
2024/01/26 03:56:29;;;;;;;2.35;2.15;;;;;;;;;;5076872;28;20033;-61
2024/01/26 03:58:54;;;;;;;3.00;2.15;;;;;;;;;;5077231;28;20078;-60
2024/01/26 04:01:20;;;;;;;1.85;1.75;;;;;;;;;;5076748;28;20115;-59
2024/01/26 04:03:46;;;;;;;2.40;1.90;;;;;;;;;;5076991;28;20341;-59
2024/01/26 04:06:11;;;;;;;2.17;1.98;;;;;;;;;;5076989;28;20047;-59
2024/01/26 04:08:37;;;;;;;2.30;1.92;;;;;;;;;;5077258;28;20029;-59
2024/01/26 04:11:03;;;;;;;2.30;2.10;;;;;;;;;;5077238;28;20056;-62
2024/01/26 04:13:28;;;;;;;2.15;1.90;;;;;;;;;;5076724;28;20040;-62
2024/01/26 04:15:54;;;;;;;3.47;2.53;;;;;;;;;;5076837;28;20043;-61
2024/01/26 04:18:19;;;;;;;3.13;2.30;;;;;;;;;;5075141;28;20527;-61
2024/01/26 04:20:46;;;;;;;2.10;2.00;;;;;;;;;;5076511;28;20020;-61
2024/01/26 04:23:11;;;;;;;2.30;2.10;;;;;;;;;;5076589;28;20032;-61
2024/01/26 04:25:37;;;;;;;2.67;2.20;;;;;;;;;;5076836;28;20433;-63
2024/01/26 04:28:03;;;;;;;2.97;2.30;;;;;;;;;;5076281;28;20025;-62
2024/01/26 04:30:28;;;;;;;4.25;2.67;;;;;;;;;;5076686;28;20012;-62
2024/01/26 04:32:53;;;;;;;2.80;2.60;;;;;;;;;;5076481;28;20063;-59
2024/01/26 04:35:19;;;;;;;2.97;2.38;;;;;;;;;;5076621;28;20036;-68
2024/01/26 04:37:45;;;;;;;3.15;2.70;;;;;;;;;;5076751;28;20038;-68
2024/01/26 04:40:10;;;;;;;3.40;2.50;;;;;;;;;;5076612;28;20036;-67
2024/01/26 04:42:36;;;;;;;3.78;2.65;;;;;;;;;;5076408;28;20039;-67
2024/01/26 04:45:01;;;;;;;4.75;2.88;;;;;;;;;;5076333;28;20099;-67
2024/01/26 04:47:28;;;;;;;2.70;2.50;;;;;;;;;;5074636;28;20475;-67
2024/01/26 04:49:53;;;;;;;2.65;2.22;;;;;;;;;;5076371;28;20025;-67
2024/01/26 04:52:19;;;;;;;3.40;2.25;;;;;;;;;;5075622;28;20560;-68
2024/01/26 04:54:46;;;;;;;3.65;2.30;;;;;;;;;;5074820;28;20499;-67
2024/01/26 04:57:12;;;;;;;2.85;2.38;;;;;;;;;;5074632;28;20040;-67
2024/01/26 04:59:37;;;;;;;2.72;2.35;;;;;;;;;;5073439;28;20037;-67
2024/01/26 05:02:03;;;;;;;3.00;2.30;;;;;;;;;;5074769;28;20020;-69
2024/01/26 05:04:28;;;;;;;2.85;2.10;;;;;;;;;;5074186;28;20345;-66
2024/01/26 05:06:55;;;;;;;4.60;2.30;;;;;;;;;;5073413;28;20064;-67
2024/01/26 05:09:21;;;;;;;3.40;2.63;;;;;;;;;;5074609;28;20476;-67
2024/01/26 05:11:47;;;;;;;4.10;2.40;;;;;;;;;;5074432;28;20222;-67
2024/01/26 05:14:12;;;;;;;4.30;2.28;;;;;;;;;;5073475;28;20108;-65
2024/01/26 05:16:37;;;;;;;3.92;2.17;;;;;;;;;;5074519;28;20047;-65
2024/01/26 05:19:03;;;;;;;3.13;2.20;;;;;;;;;;5073515;28;20008;-65
2024/01/26 05:21:28;;;;;;;3.80;1.90;;;;;;;;;;5056745;28;20017;-65
2024/01/26 05:23:54;;;;;;;5.25;2.22;;;;;;;;;;5075444;28;20129;-65
2024/01/26 05:26:19;;;;;;;5.38;2.67;;;;;;;;;;5073839;28;20054;-65
2024/01/26 05:28:45;;;;;;;4.57;2.50;;;;;;;;;;5073955;28;20487;-65
2024/01/26 05:31:11;;;;;;;5.38;2.33;;;;;;;;;;5073889;28;20099;-65
2024/01/26 05:33:37;;;;;;;3.17;2.40;;;;;;;;;;5075681;28;20041;-65
2024/01/26 05:36:03;;;;;;;3.42;2.15;;;;;;;;;;5074197;28;20137;-65
2024/01/26 05:38:28;;;;;;;4.22;2.45;;;;;;;;;;5075134;28;20543;-65
2024/01/26 05:40:54;;;;;;;4.85;2.33;;;;;;;;;;5075372;28;20040;-65
2024/01/26 05:43:19;;;;;;;4.85;2.42;;;;;;;;;;5075271;28;20068;-65
2024/01/26 05:45:44;;;;;;;6.15;2.40;;;;;;;;;;5057117;28;20119;-65
2024/01/26 05:48:10;;;;;;;5.20;2.78;;;;;;;;;;5074820;28;20455;-65
2024/01/26 05:50:37;;;;;;;4.38;2.63;;;;;;;;;;5075356;28;20024;-65
2024/01/26 05:53:02;;;;;;;7.60;2.65;;;;;;;;;;5075352;28;20115;-65
2024/01/26 05:55:28;;;;;;;7.28;2.80;;;;;;;;;;5074838;28;20107;-64
2024/01/26 05:57:53;;;;;;;6.90;2.97;;;;;;;;;;5074743;28;20036;-65
2024/01/26 06:00:19;;;;;;;4.05;2.83;;;;;;;;;;5074692;28;20020;-64
2024/01/26 06:02:45;;;;;;;4.65;2.88;;;;;;;;;;5074562;28;20143;-64
2024/01/26 06:05:10;;;;;;;7.60;3.33;;;;;;;;;;5074660;28;20077;-64
2024/01/26 06:07:36;;;;;;;4.00;2.70;;;;;;;;;;5073948;28;20349;-64
2024/01/26 06:10:03;;;;;;;6.28;3.03;;;;;;;;;;5074311;28;20028;-64
2024/01/26 06:12:28;;;;;;;5.25;2.80;;;;;;;;;;5072793;28;20494;-64
2024/01/26 06:14:53;;;;;;;8.18;3.55;;;;;;;;;;5074219;28;20060;-65
2024/01/26 06:17:19;;;;;;;8.15;3.08;;;;;;;;;;5074443;28;20033;-64
2024/01/26 06:19:46;;;;;;;5.93;3.15;;;;;;;;;;5074303;28;20029;-64
2024/01/26 06:22:11;;;;;;;5.68;3.30;;;;;;;;;;5074073;28;20041;-64
2024/01/26 06:24:38;;;;;;;5.15;3.20;;;;;;;;;;5074501;28;20044;-64
2024/01/26 06:27:03;;;;;;;7.55;3.83;;;;;;;;;;5072530;28;20033;-64
2024/01/26 06:29:29;;;;;;;8.07;3.85;;;;;;;;;;5073326;28;20510;-64
2024/01/26 06:31:57;;;;;;;9.45;4.10;;;;;;;;;;5073272;28;20036;-64
2024/01/26 06:34:22;;;;;;;8.52;4.07;;;;;;;;;;5073226;28;20021;-64
2024/01/26 06:36:48;;;;;;;8.90;3.60;;;;;;;;;;5070703;28;20028;-64
2024/01/26 06:39:13;;;;;;;8.95;3.60;;;;;;;;;;5071918;28;20028;-64
2024/01/26 06:41:42;;;;;;;4.68;3.00;;;;;;;;;;5071853;28;20483;-64
2024/01/26 06:44:07;;;;;;;4.82;2.97;;;;;;;;;;5073994;28;20047;-64
2024/01/26 06:46:33;;;;;;;6.18;3.45;;;;;;;;;;5073146;28;20028;-64
2024/01/26 06:48:59;;;;;;;7.13;3.25;;;;;;;;;;5073719;28;20024;-64
2024/01/26 06:51:24;;;;;;;5.28;3.53;;;;;;;;;;5073733;28;20479;-65
2024/01/26 06:53:49;;;;;;;5.38;3.50;;;;;;;;;;5073659;28;20036;-64
2024/01/26 06:56:15;;;;;;;7.18;3.33;;;;;;;;;;5073688;28;20033;-64
2024/01/26 06:58:40;;;;;;;5.40;3.30;;;;;;;;;;5072342;28;20468;-64
2024/01/26 07:01:05;;;;;;;7.55;3.15;;;;;;;;;;5073588;28;20039;-64
2024/01/26 07:03:31;;;;;;;7.78;2.75;;;;;;;;;;5073797;28;20111;-65
2024/01/26 07:05:56;;;;;;;6.80;2.65;;;;;;;;;;5073559;28;20027;-64
2024/01/26 07:08:22;;;;;;;6.15;2.42;;;;;;;;;;5074052;28;20032;-64
2024/01/26 07:10:47;;;;;;;8.13;3.17;;;;;;;;;;5073523;28;20025;-64
2024/01/26 07:13:12;;;;;;;8.05;4.00;;;;;;;;;;5073303;28;20044;-64
2024/01/26 07:15:38;;;;;;;8.20;3.17;;;;;;;;;;5073471;28;20024;-64
2024/01/26 07:18:04;;;;;;;9.82;3.67;;;;;;;;;;5073575;28;20028;-64
2024/01/26 07:20:29;;;;;;;7.15;3.83;;;;;;;;;;5077831;28;20043;-64
2024/01/26 07:22:55;;;;;;;8.02;3.30;;;;;;;;;;5077465;28;20040;-64
2024/01/26 07:25:21;;;;;;;9.48;3.95;;;;;;;;;;5077454;28;20028;-64
2024/01/26 07:27:47;;;;;;;8.40;4.55;;;;;;;;;;5077726;28;20024;-64
2024/01/26 07:30:13;;;;;;;9.93;3.88;;;;;;;;;;5076456;28;20028;-64
2024/01/26 07:32:39;;;;;;;6.53;3.85;;;;;;;;;;5077897;28;20036;-64
2024/01/26 07:35:05;;;;;;;8.88;4.10;;;;;;;;;;5077279;28;20036;-64
2024/01/26 07:37:32;;;;;;;8.55;4.03;;;;;;;;;;5077254;28;20078;-64
2024/01/26 07:39:57;;;;;;;8.55;3.80;;;;;;;;;;5077503;28;20360;-64
2024/01/26 07:42:23;;;;;;;9.05;3.63;;;;;;;;;;5077117;28;20031;-64
2024/01/26 07:44:48;;;;;;;9.20;3.80;;;;;;;;;;5077127;28;20379;-64
2024/01/26 07:47:13;;;;;;;6.57;3.65;;;;;;;;;;5077354;28;20021;-64
2024/01/26 07:49:39;;;;;;;10.93;4.00;;;;;;;;;;5077534;28;20025;-64
2024/01/26 07:52:04;;;;;;;7.25;2.72;;;;;;;;;;5077260;28;20028;-64
2024/01/26 07:54:30;;;;;;;6.97;3.40;;;;;;;;;;5075661;28;20059;-64
2024/01/26 07:56:55;;;;;;;7.47;3.50;;;;;;;;;;5075600;28;20020;-64
2024/01/26 07:59:20;;;;;;;6.40;2.92;;;;;;;;;;5077089;28;20033;-64
2024/01/26 08:01:56;;;;;;;7.47;3.15;;;;;;;;;;5070152;23;20057;-57
2024/01/26 08:04:21;;;;;;;6.80;2.80;;;;;;;;;;5058350;23;20155;-57
2024/01/26 08:06:47;;;;;;;7.18;2.70;;;;;;;;;;5052855;22;20145;-64
2024/01/26 08:09:13;;;;;;;5.95;2.92;;;;;;;;;;5062309;23;21322;-63
2024/01/26 08:11:39;;;;;;;6.65;2.75;;;;;;;;;;5034219;23;21046;-56
2024/01/26 08:14:04;;;;;;;6.43;3.33;;;;;;;;;;5056514;28;20365;-56
2024/01/26 08:16:30;;;;;;;4.30;2.45;;;;;;;;;;5055284;28;20111;-56
2024/01/26 08:18:56;;;;;;;7.65;2.90;;;;;;;;;;5056454;28;20477;-56
2024/01/26 08:21:22;;;;;;;6.63;3.05;;;;;;;;;;5056675;28;20024;-56
2024/01/26 08:23:47;;;;;;;4.90;2.67;;;;;;;;;;5038418;28;20064;-56
2024/01/26 08:26:14;;;;;;;6.45;2.83;;;;;;;;;;5056873;28;20053;-56
2024/01/26 08:28:39;;;;;;;4.78;2.72;;;;;;;;;;5038382;28;20028;-56
2024/01/26 08:31:05;;;;;;;7.55;4.30;;;;;;;;;;5038045;28;20040;-56
2024/01/26 08:33:31;;;;;;;9.82;3.38;;;;;;;;;;5056418;28;20037;-56
2024/01/26 08:35:56;;;;;;;5.20;2.92;;;;;;;;;;5056388;28;20078;-56
2024/01/26 08:38:21;;;;;;;6.57;3.05;;;;;;;;;;5056067;28;20374;-56
2024/01/26 08:40:47;;;;;;;4.43;2.85;;;;;;;;;;5056311;28;20037;-56
2024/01/26 08:43:12;;;;;;;6.10;3.08;;;;;;;;;;5056185;28;20474;-56
2024/01/26 08:45:37;;;;;;;7.10;3.30;;;;;;;;;;5038036;28;20515;-56
2024/01/26 08:48:03;;;;;;;5.13;3.10;;;;;;;;;;5038092;28;20530;-56
2024/01/26 08:50:29;;;;;;;5.60;3.08;;;;;;;;;;5056117;28;20013;-56
2024/01/26 08:52:54;;;;;;;6.68;3.35;;;;;;;;;;5056064;28;20029;-56
2024/01/26 08:55:20;;;;;;;5.57;3.20;;;;;;;;;;5056008;28;20025;-56
2024/01/26 08:57:48;;;;;;;8.95;3.63;;;;;;;;;;5055988;28;20057;-56
2024/01/26 09:00:15;;;;;;;6.57;3.53;;;;;;;;;;5055620;28;20522;-56
2024/01/26 09:02:40;;;;;;;5.93;3.15;;;;;;;;;;5055549;28;20449;-56
2024/01/26 09:05:06;;;;;;;6.20;3.10;;;;;;;;;;5055593;28;20104;-56
2024/01/26 09:07:31;;;;;;;6.93;3.13;;;;;;;;;;5055804;28;20100;-56
2024/01/26 09:09:57;;;;;;;5.57;2.97;;;;;;;;;;5055700;28;20036;-56
2024/01/26 09:12:22;;;;;;;3.95;2.58;;;;;;;;;;5055474;28;20124;-56
2024/01/26 09:14:47;;;;;;;7.85;3.00;;;;;;;;;;5055644;28;20067;-56
2024/01/26 09:17:13;;;;;;;5.45;3.10;;;;;;;;;;5055586;28;20029;-56
2024/01/26 09:19:38;;;;;;;6.05;3.20;;;;;;;;;;5055807;28;20075;-56
2024/01/26 09:22:03;;;;;;;5.88;2.90;;;;;;;;;;5055189;28;20021;-56
2024/01/26 09:24:29;;;;;;;8.30;3.67;;;;;;;;;;5055472;28;20033;-56
2024/01/26 09:26:56;;;;;;;7.60;3.83;;;;;;;;;;5055165;28;20064;-56
2024/01/26 09:29:22;;;;;;;5.85;3.15;;;;;;;;;;5055702;28;20145;-56
2024/01/26 09:31:48;;;;;;;6.38;3.15;;;;;;;;;;5055087;28;20021;-55
2024/01/26 09:34:14;;;;;;;7.22;4.30;;;;;;;;;;5055289;28;20040;-56
2024/01/26 09:36:39;;;;;;;7.72;4.00;;;;;;;;;;5054939;28;20033;-55
2024/01/26 09:39:05;;;;;;;4.75;3.22;;;;;;;;;;5055498;28;20067;-56
2024/01/26 09:41:32;;;;;;;6.88;2.95;;;;;;;;;;5054370;28;20033;-56
2024/01/26 09:43:57;;;;;;;6.03;2.83;;;;;;;;;;5054531;28;20025;-55
2024/01/26 09:46:23;;;;;;;4.35;2.97;;;;;;;;;;5055023;28;20029;-56
2024/01/26 09:48:51;;;;;;;7.53;3.45;;;;;;;;;;5054760;28;20051;-56
2024/01/26 09:51:17;;;;;;;5.85;3.17;;;;;;;;;;5054988;28;20040;-56
2024/01/26 09:53:43;;;;;;;4.68;2.70;;;;;;;;;;5036786;28;20025;-56
2024/01/26 09:56:08;;;;;;;9.60;3.22;;;;;;;;;;5036746;28;20380;-56
2024/01/26 09:58:34;;;;;;;8.68;5.40;;;;;;;;;;5054532;28;20033;-56
2024/01/26 10:01:00;;;;;;;5.50;4.20;;;;;;;;;;5054501;28;20029;-55
2024/01/26 10:03:27;;;;;;;4.80;2.67;;;;;;;;;;5036538;28;20490;-56
2024/01/26 10:05:53;;;;;;;4.63;4.15;;;;;;;;;;5054409;28;20460;-55
2024/01/26 10:08:18;;;;;;;4.50;2.15;;;;;;;;;;5054389;28;20468;-56
2024/01/26 10:10:43;;;;;;;3.55;2.17;;;;;;;;;;5036471;28;20031;-55
2024/01/26 10:13:10;;;;;;;5.07;2.72;;;;;;;;;;5032973;28;20048;-55
2024/01/26 10:15:35;;;;;;;3.97;2.60;;;;;;;;;;5033177;28;20029;-55
2024/01/26 10:18:01;;;;;;;4.50;2.70;;;;;;;;;;5034303;28;20014;-55
2024/01/26 10:20:26;;;;;;;4.18;2.78;;;;;;;;;;5034260;28;20499;-55
2024/01/26 10:22:52;;;;;;;7.07;2.80;;;;;;;;;;5034129;28;20140;-55
2024/01/26 10:25:17;;;;;;;6.72;2.78;;;;;;;;;;5034474;28;20030;-55
2024/01/26 10:27:42;;;;;;;5.40;2.38;;;;;;;;;;5032963;28;20025;-56
2024/01/26 10:30:10;;;;;;;5.25;2.47;;;;;;;;;;5034350;28;20025;-56
2024/01/26 10:32:35;;;;;;;5.57;2.53;;;;;;;;;;5034605;28;20036;-56
2024/01/26 10:35:02;;;;;;;4.50;2.35;;;;;;;;;;5033977;28;20021;-55
2024/01/26 10:37:28;;;;;;;4.05;2.35;;;;;;;;;;5033922;28;20044;-55
2024/01/26 10:39:55;;;;;;;3.75;1.95;;;;;;;;;;5033921;28;20029;-55
2024/01/26 10:42:20;;;;;;;4.53;2.22;;;;;;;;;;5033788;28;20359;-56
2024/01/26 10:44:46;;;;;;;3.40;2.30;;;;;;;;;;5033855;28;20025;-55
2024/01/26 10:47:12;;;;;;;4.18;2.22;;;;;;;;;;5034066;28;20462;-56
2024/01/26 10:49:39;;;;;;;4.18;2.55;;;;;;;;;;5034010;28;20044;-56
2024/01/26 10:52:05;;;;;;;5.20;2.38;;;;;;;;;;5034051;28;20029;-56
2024/01/26 10:54:31;;;;;;;3.20;2.30;;;;;;;;;;5033415;28;20385;-56
2024/01/26 10:56:57;;;;;;;5.00;2.63;;;;;;;;;;5032469;28;20033;-55
2024/01/26 10:59:23;;;;;;;4.53;2.42;;;;;;;;;;5034169;28;20029;-56
2024/01/26 11:01:48;;;;;;;4.32;2.47;;;;;;;;;;5033617;28;20049;-63
2024/01/26 11:04:13;;;;;;;5.63;2.20;;;;;;;;;;5032232;28;20033;-63
2024/01/26 11:06:39;;;;;;;4.20;1.98;;;;;;;;;;5033733;28;20029;-63
2024/01/26 11:09:08;;;;;;;3.22;2.28;;;;;;;;;;5033572;28;20072;-63
2024/01/26 11:11:39;;;;;;;7.63;2.85;;;;;;;;;;5034116;28;20010;-63
2024/01/26 11:14:11;;;;;;;4.13;2.50;;;;;;;;;;5015617;28;20272;-63
2024/01/26 11:16:41;;;;;;;6.25;2.53;;;;;;;;;;5033827;28;20480;-63
2024/01/26 11:19:07;;;;;;;6.93;2.78;;;;;;;;;;5033500;28;20428;-63
2024/01/26 11:21:36;;;;;;;6.57;3.15;;;;;;;;;;5033469;28;20026;-63
2024/01/26 11:24:15;;;;;;;5.18;2.92;;;;;;;;;;5033614;28;20511;-63
2024/01/26 11:26:54;;;;;;;4.93;2.92;;;;;;;;;;5033412;28;20029;-63
2024/01/26 11:29:19;;;;;;;5.65;3.55;;;;;;;;;;5033935;28;20107;-63
2024/01/26 11:31:45;;;;;;;8.23;3.80;;;;;;;;;;5034160;28;20354;-63
2024/01/26 11:34:38;;;;;;;5.95;3.88;;;;;;;;;;5033256;28;20034;-63
2024/01/26 11:37:10;;;;;;;6.70;3.78;;;;;;;;;;5031638;28;20050;-63
2024/01/26 11:39:36;;;;;;;8.65;4.10;;;;;;;;;;5033827;28;20033;-63
2024/01/26 11:42:06;;;;;;;7.63;4.05;;;;;;;;;;5033459;28;20038;-63
2024/01/26 11:44:34;;;;;;;8.30;4.10;;;;;;;;;;5032000;28;20036;-63
2024/01/26 11:47:01;;;;;;;9.63;4.43;;;;;;;;;;5033515;28;20045;-63
2024/01/26 11:49:26;;;;;;;8.23;4.70;;;;;;;;;;5031946;28;20072;-63
2024/01/26 11:51:52;;;;;;;6.80;4.10;;;;;;;;;;5033406;28;20049;-63
2024/01/26 11:54:18;;;;;;;10.23;4.60;;;;;;;;;;5033111;28;20041;-63
2024/01/26 11:56:43;;;;;;;6.97;3.97;;;;;;;;;;5033663;28;20041;-63
2024/01/26 11:59:09;;;;;;;9.02;4.25;;;;;;;;;;5033108;28;20033;-63
2024/01/26 12:01:34;;;;;;;7.57;4.32;;;;;;;;;;5033077;28;20477;-63
2024/01/26 12:04:00;;;;;;;8.80;4.35;;;;;;;;;;5033492;28;20112;-63
2024/01/26 12:06:25;;;;;;;10.48;4.70;;;;;;;;;;5035247;28;20389;-63
2024/01/26 12:08:50;;;;;;;7.22;3.17;;;;;;;;;;5036707;28;20464;-63
2024/01/26 12:11:17;;;;;;;5.13;2.53;;;;;;;;;;5036930;28;20076;-63
2024/01/26 12:13:44;;;;;;;4.13;2.45;;;;;;;;;;5036460;28;20042;-63
2024/01/26 12:16:10;;;;;;;4.20;2.28;;;;;;;;;;5036838;28;20119;-63
2024/01/26 12:18:36;;;;;;;4.80;2.55;;;;;;;;;;5036546;28;20456;-63
2024/01/26 12:21:02;;;;;;;3.75;1.98;;;;;;;;;;5036470;28;20112;-63
2024/01/26 12:23:27;;;;;;;3.90;2.40;;;;;;;;;;5019253;28;20033;-63
2024/01/26 12:25:52;;;;;;;3.22;2.00;;;;;;;;;;5036417;28;20366;-63
2024/01/26 12:28:18;;;;;;;5.50;2.53;;;;;;;;;;5036337;28;20370;-63
2024/01/26 12:30:46;;;;;;;2.80;1.77;;;;;;;;;;5036327;28;20479;-63
2024/01/26 12:33:12;;;;;;;4.22;2.08;;;;;;;;;;5036259;28;20044;-63
2024/01/26 12:35:41;;;;;;;3.40;1.92;;;;;;;;;;5036508;28;20044;-63
2024/01/26 12:38:07;;;;;;;2.08;1.55;;;;;;;;;;5036476;28;20038;-63
2024/01/26 12:40:32;;;;;;;4.30;2.35;;;;;;;;;;5036421;28;20037;-63
2024/01/26 12:42:59;;;;;;;3.65;2.28;;;;;;;;;;5036043;28;20064;-63
2024/01/26 12:45:25;;;;;;;4.50;2.35;;;;;;;;;;5036041;28;20037;-63
2024/01/26 12:47:50;;;;;;;4.13;2.35;;;;;;;;;;5036533;28;20037;-63
2024/01/26 12:50:16;;;;;;;5.60;2.55;;;;;;;;;;5035959;28;20126;-63
2024/01/26 12:52:41;;;;;;;4.60;2.45;;;;;;;;;;5036413;28;20026;-63
2024/01/26 12:55:06;;;;;;;4.72;2.30;;;;;;;;;;5036113;28;20026;-63
2024/01/26 12:57:32;;;;;;;4.90;2.47;;;;;;;;;;5036114;28;20367;-63
2024/01/26 12:59:57;;;;;;;4.47;2.50;;;;;;;;;;5035771;28;20499;-63
2024/01/26 13:02:23;;;;;;;7.00;3.17;;;;;;;;;;5034505;28;20032;-63
2024/01/26 13:04:49;;;;;;;6.32;2.83;;;;;;;;;;5036202;28;20034;-63
2024/01/26 13:07:15;;;;;;;5.50;3.25;;;;;;;;;;5035894;28;20029;-63
2024/01/26 13:09:41;;;;;;;9.68;3.72;;;;;;;;;;5035906;28;20022;-63
2024/01/26 13:12:07;;;;;;;8.73;3.50;;;;;;;;;;5035320;28;20113;-63
2024/01/26 13:14:32;;;;;;;9.75;5.80;;;;;;;;;;5018181;28;20098;-63
2024/01/26 13:16:59;;;;;;;12.50;6.55;;;;;;;;;;5035225;28;20116;-63
2024/01/26 13:19:25;;;;;;;9.65;5.97;;;;;;;;;;5035397;28;20029;-63
2024/01/26 13:21:50;;;;;;;13.02;6.05;;;;;;;;;;5035374;28;20044;-63
2024/01/26 13:24:16;;;;;;;8.48;4.95;;;;;;;;;;5035263;28;20393;-63
2024/01/26 13:26:42;;;;;;;11.20;4.90;;;;;;;;;;5035554;28;20033;-63
2024/01/26 13:29:08;;;;;;;10.40;5.22;;;;;;;;;;5035768;28;20041;-63
2024/01/26 13:31:34;;;;;;;12.23;5.40;;;;;;;;;;5035122;28;20026;-63
2024/01/26 13:33:59;;;;;;;7.60;3.97;;;;;;;;;;5035116;28;20032;-63
2024/01/26 13:36:24;;;;;;;7.35;4.03;;;;;;;;;;5035085;28;20139;-63
2024/01/26 13:38:50;;;;;;;7.28;4.00;;;;;;;;;;5035034;28;20047;-63
2024/01/26 13:41:16;;;;;;;8.65;5.05;;;;;;;;;;5035280;28;20033;-63
2024/01/26 13:43:42;;;;;;;8.90;4.57;;;;;;;;;;5035098;28;20436;-63
2024/01/26 13:46:08;;;;;;;9.48;5.25;;;;;;;;;;5034899;28;20087;-63
2024/01/26 13:48:34;;;;;;;11.70;5.88;;;;;;;;;;5033554;28;20037;-63
2024/01/26 13:51:00;;;;;;;8.57;4.78;;;;;;;;;;5033538;28;20396;-63
2024/01/26 13:53:25;;;;;;;9.98;4.82;;;;;;;;;;5033831;28;20124;-62
2024/01/26 13:55:51;;;;;;;10.40;5.20;;;;;;;;;;5034681;28;20116;-61
2024/01/26 13:58:17;;;;;;;8.65;4.57;;;;;;;;;;5034921;28;20164;-61
2024/01/26 14:00:43;;;;;;;10.32;5.78;;;;;;;;;;5034909;28;20056;-61
2024/01/26 14:03:08;;;;;;;9.05;4.45;;;;;;;;;;5016766;28;20512;-61
2024/01/26 14:05:34;;;;;;;13.10;6.10;;;;;;;;;;5034500;28;20108;-61
2024/01/26 14:08:00;;;;;;;9.32;6.72;;;;;;;;;;5034590;28;20029;-61
2024/01/26 14:10:25;;;;;;;7.88;5.00;;;;;;;;;;5031358;28;20492;-61
2024/01/26 14:12:51;;;;;;;7.20;4.47;;;;;;;;;;5032272;28;20597;-61
2024/01/26 14:15:16;;;;;;;5.90;3.80;;;;;;;;;;5032321;28;20132;-61
2024/01/26 14:17:42;;;;;;;10.00;5.25;;;;;;;;;;5032328;28;20034;-61
2024/01/26 14:20:08;;;;;;;9.50;5.93;;;;;;;;;;5032594;28;20033;-61
2024/01/26 14:22:33;;;;;;;9.73;5.68;;;;;;;;;;5034453;28;20417;-61
2024/01/26 14:24:59;;;;;;;10.25;5.50;;;;;;;;;;5034173;28;20030;-61
2024/01/26 14:27:25;;;;;;;10.48;5.03;;;;;;;;;;5034137;28;20488;-61
2024/01/26 14:29:51;;;;;;;8.27;3.97;;;;;;;;;;5033925;28;20021;-61
2024/01/26 14:32:17;;;;;;;8.30;4.82;;;;;;;;;;5034577;28;20116;-61
2024/01/26 14:34:42;;;;;;;12.50;5.40;;;;;;;;;;5034508;28;20113;-61